sensor_id;sensor_type;location;lat;lon;timestamp;temperature;humidity
19039;DHT22;9652;49.014;12.052;2022-11-04T00:02:02;14.30;73.20
19039;DHT22;9652;49.014;12.052;2022-11-04T00:04:30;14.30;73.20
19039;DHT22;9652;49.014;12.052;2022-11-04T00:06:57;14.30;73.20
19039;DHT22;9652;49.014;12.052;2022-11-04T00:09:25;14.30;73.30
19039;DHT22;9652;49.014;12.052;2022-11-04T00:11:55;14.50;73.50
19039;DHT22;9652;49.014;12.052;2022-11-04T00:14:41;14.40;73.30
19039;DHT22;9652;49.014;12.052;2022-11-04T00:17:11;14.40;73.30
19039;DHT22;9652;49.014;12.052;2022-11-04T00:19:44;14.40;73.50
19039;DHT22;9652;49.014;12.052;2022-11-04T00:22:41;14.40;73.40
19039;DHT22;9652;49.014;12.052;2022-11-04T00:25:26;14.40;73.40
19039;DHT22;9652;49.014;12.052;2022-11-04T00:28:19;14.40;73.40
19039;DHT22;9652;49.014;12.052;2022-11-04T00:31:05;14.40;73.30
19039;DHT22;9652;49.014;12.052;2022-11-04T00:33:50;14.40;73.40
19039;DHT22;9652;49.014;12.052;2022-11-04T00:36:19;14.60;73.50
19039;DHT22;9652;49.014;12.052;2022-11-04T00:38:47;14.50;73.40
19039;DHT22;9652;49.014;12.052;2022-11-04T00:41:14;14.50;73.40
19039;DHT22;9652;49.014;12.052;2022-11-04T00:43:56;14.50;73.40
19039;DHT22;9652;49.014;12.052;2022-11-04T00:46:24;14.50;73.40
19039;DHT22;9652;49.014;12.052;2022-11-04T00:48:53;14.50;73.40
19039;DHT22;9652;49.014;12.052;2022-11-04T00:51:20;14.50;73.40
19039;DHT22;9652;49.014;12.052;2022-11-04T00:53:48;14.50;73.30
19039;DHT22;9652;49.014;12.052;2022-11-04T00:56:16;14.50;73.30
19039;DHT22;9652;49.014;12.052;2022-11-04T00:58:43;14.60;73.40
19039;DHT22;9652;49.014;12.052;2022-11-04T01:01:12;14.50;73.30
19039;DHT22;9652;49.014;12.052;2022-11-04T01:03:42;14.50;73.40
19039;DHT22;9652;49.014;12.052;2022-11-04T01:06:11;14.50;73.30
19039;DHT22;9652;49.014;12.052;2022-11-04T01:08:38;14.60;74.30
19039;DHT22;9652;49.014;12.052;2022-11-04T01:11:08;14.60;73.50
19039;DHT22;9652;49.014;12.052;2022-11-04T01:13:36;14.40;73.80
19039;DHT22;9652;49.014;12.052;2022-11-04T01:16:06;14.50;73.40
19039;DHT22;9652;49.014;12.052;2022-11-04T01:18:35;14.60;73.50
19039;DHT22;9652;49.014;12.052;2022-11-04T01:21:03;14.50;73.40
19039;DHT22;9652;49.014;12.052;2022-11-04T01:23:34;14.50;73.40
19039;DHT22;9652;49.014;12.052;2022-11-04T01:26:04;14.50;73.30
19039;DHT22;9652;49.014;12.052;2022-11-04T01:28:31;14.60;73.50
19039;DHT22;9652;49.014;12.052;2022-11-04T01:30:58;14.60;73.40
19039;DHT22;9652;49.014;12.052;2022-11-04T01:33:30;14.60;73.40
19039;DHT22;9652;49.014;12.052;2022-11-04T01:35:58;14.60;73.50
19039;DHT22;9652;49.014;12.052;2022-11-04T01:38:26;14.60;73.50
19039;DHT22;9652;49.014;12.052;2022-11-04T01:40:55;14.60;73.50
19039;DHT22;9652;49.014;12.052;2022-11-04T01:43:42;14.60;73.70
19039;DHT22;9652;49.014;12.052;2022-11-04T01:46:13;14.60;74.00
19039;DHT22;9652;49.014;12.052;2022-11-04T01:48:48;14.60;73.70
19039;DHT22;9652;49.014;12.052;2022-11-04T01:51:18;14.60;73.80
19039;DHT22;9652;49.014;12.052;2022-11-04T01:53:47;14.60;74.20
19039;DHT22;9652;49.014;12.052;2022-11-04T01:56:19;14.50;74.20
19039;DHT22;9652;49.014;12.052;2022-11-04T01:58:48;14.50;74.40
19039;DHT22;9652;49.014;12.052;2022-11-04T02:01:19;14.50;74.70
19039;DHT22;9652;49.014;12.052;2022-11-04T02:03:48;14.50;74.90
19039;DHT22;9652;49.014;12.052;2022-11-04T02:06:20;14.50;75.20
19039;DHT22;9652;49.014;12.052;2022-11-04T02:08:48;14.50;75.50
19039;DHT22;9652;49.014;12.052;2022-11-04T02:11:15;14.50;75.60
19039;DHT22;9652;49.014;12.052;2022-11-04T02:13:58;14.40;75.80
19039;DHT22;9652;49.014;12.052;2022-11-04T02:16:31;14.40;76.00
19039;DHT22;9652;49.014;12.052;2022-11-04T02:19:20;14.40;76.30
19039;DHT22;9652;49.014;12.052;2022-11-04T02:22:24;14.40;76.60
19039;DHT22;9652;49.014;12.052;2022-11-04T02:28:51;14.40;77.30
19039;DHT22;9652;49.014;12.052;2022-11-04T02:31:47;14.40;77.40
19039;DHT22;9652;49.014;12.052;2022-11-04T02:34:25;14.30;77.30
19039;DHT22;9652;49.014;12.052;2022-11-04T02:37:07;14.30;77.50
19039;DHT22;9652;49.014;12.052;2022-11-04T02:39:49;14.30;77.70
19039;DHT22;9652;49.014;12.052;2022-11-04T02:42:26;14.40;78.10
19039;DHT22;9652;49.014;12.052;2022-11-04T02:45:11;14.30;78.00
19039;DHT22;9652;49.014;12.052;2022-11-04T02:47:45;14.30;78.30
19039;DHT22;9652;49.014;12.052;2022-11-04T02:50:22;14.20;78.30
19039;DHT22;9652;49.014;12.052;2022-11-04T02:53:00;14.30;78.70
19039;DHT22;9652;49.014;12.052;2022-11-04T02:55:34;14.20;78.70
19039;DHT22;9652;49.014;12.052;2022-11-04T02:58:09;14.20;78.80
19039;DHT22;9652;49.014;12.052;2022-11-04T03:00:42;14.20;79.00
19039;DHT22;9652;49.014;12.052;2022-11-04T03:03:14;14.20;79.00
19039;DHT22;9652;49.014;12.052;2022-11-04T03:05:49;14.20;79.20
19039;DHT22;9652;49.014;12.052;2022-11-04T03:08:22;14.20;79.20
19039;DHT22;9652;49.014;12.052;2022-11-04T03:10:55;14.20;79.30
19039;DHT22;9652;49.014;12.052;2022-11-04T03:13:33;14.20;79.40
19039;DHT22;9652;49.014;12.052;2022-11-04T03:16:09;14.20;79.40
19039;DHT22;9652;49.014;12.052;2022-11-04T03:18:46;14.20;79.50
19039;DHT22;9652;49.014;12.052;2022-11-04T03:21:21;14.20;79.60
19039;DHT22;9652;49.014;12.052;2022-11-04T03:23:50;14.20;79.50
19039;DHT22;9652;49.014;12.052;2022-11-04T03:26:22;14.20;79.50
19039;DHT22;9652;49.014;12.052;2022-11-04T03:29:03;14.20;79.60
19039;DHT22;9652;49.014;12.052;2022-11-04T03:31:44;14.10;79.70
19039;DHT22;9652;49.014;12.052;2022-11-04T03:34:16;14.10;79.50
19039;DHT22;9652;49.014;12.052;2022-11-04T03:36:43;14.10;79.40
19039;DHT22;9652;49.014;12.052;2022-11-04T03:39:10;14.10;79.50
19039;DHT22;9652;49.014;12.052;2022-11-04T03:41:42;14.10;79.60
19039;DHT22;9652;49.014;12.052;2022-11-04T03:44:14;14.10;79.90
19039;DHT22;9652;49.014;12.052;2022-11-04T03:46:43;14.00;79.70
19039;DHT22;9652;49.014;12.052;2022-11-04T03:49:11;14.00;79.70
19039;DHT22;9652;49.014;12.052;2022-11-04T03:51:39;14.10;79.90
19039;DHT22;9652;49.014;12.052;2022-11-04T03:54:06;14.10;79.90
19039;DHT22;9652;49.014;12.052;2022-11-04T03:57:01;14.00;80.00
19039;DHT22;9652;49.014;12.052;2022-11-04T03:59:58;14.00;80.60
19039;DHT22;9652;49.014;12.052;2022-11-04T04:02:40;14.00;80.20
19039;DHT22;9652;49.014;12.052;2022-11-04T04:05:21;14.00;80.20
19039;DHT22;9652;49.014;12.052;2022-11-04T04:07:56;14.00;80.00
19039;DHT22;9652;49.014;12.052;2022-11-04T04:10:36;14.00;80.00
19039;DHT22;9652;49.014;12.052;2022-11-04T04:13:27;14.00;80.10
19039;DHT22;9652;49.014;12.052;2022-11-04T04:16:06;14.10;80.70
19039;DHT22;9652;49.014;12.052;2022-11-04T04:18:40;13.90;80.10
19039;DHT22;9652;49.014;12.052;2022-11-04T04:21:13;13.90;80.20
19039;DHT22;9652;49.014;12.052;2022-11-04T04:23:48;13.90;80.20
19039;DHT22;9652;49.014;12.052;2022-11-04T04:26:36;13.90;80.20
19039;DHT22;9652;49.014;12.052;2022-11-04T04:29:25;14.00;80.20
19039;DHT22;9652;49.014;12.052;2022-11-04T04:31:55;13.90;80.20
19039;DHT22;9652;49.014;12.052;2022-11-04T04:34:28;14.00;80.40
19039;DHT22;9652;49.014;12.052;2022-11-04T04:37:00;13.90;80.40
19039;DHT22;9652;49.014;12.052;2022-11-04T04:39:35;13.90;80.40
19039;DHT22;9652;49.014;12.052;2022-11-04T04:42:23;13.90;80.40
19039;DHT22;9652;49.014;12.052;2022-11-04T04:45:08;14.00;80.30
19039;DHT22;9652;49.014;12.052;2022-11-04T04:47:45;14.00;80.40
19039;DHT22;9652;49.014;12.052;2022-11-04T04:50:15;14.00;80.40
19039;DHT22;9652;49.014;12.052;2022-11-04T04:52:46;13.90;80.40
19039;DHT22;9652;49.014;12.052;2022-11-04T04:55:16;13.90;80.40
19039;DHT22;9652;49.014;12.052;2022-11-04T04:57:43;14.00;80.40
19039;DHT22;9652;49.014;12.052;2022-11-04T05:00:14;13.90;80.30
19039;DHT22;9652;49.014;12.052;2022-11-04T05:02:43;13.90;80.30
19039;DHT22;9652;49.014;12.052;2022-11-04T05:05:11;14.00;80.40
19039;DHT22;9652;49.014;12.052;2022-11-04T05:07:40;13.90;80.40
19039;DHT22;9652;49.014;12.052;2022-11-04T05:10:09;13.90;80.40
19039;DHT22;9652;49.014;12.052;2022-11-04T05:12:39;13.90;80.40
19039;DHT22;9652;49.014;12.052;2022-11-04T05:15:24;13.90;80.40
19039;DHT22;9652;49.014;12.052;2022-11-04T05:17:53;13.90;80.30
19039;DHT22;9652;49.014;12.052;2022-11-04T05:20:21;13.90;80.30
19039;DHT22;9652;49.014;12.052;2022-11-04T05:22:50;13.90;80.20
19039;DHT22;9652;49.014;12.052;2022-11-04T05:25:17;13.90;80.20
19039;DHT22;9652;49.014;12.052;2022-11-04T05:27:44;13.90;79.90
19039;DHT22;9652;49.014;12.052;2022-11-04T05:30:11;13.80;79.90
19039;DHT22;9652;49.014;12.052;2022-11-04T05:32:38;13.80;79.90
19039;DHT22;9652;49.014;12.052;2022-11-04T05:35:06;13.80;80.00
19039;DHT22;9652;49.014;12.052;2022-11-04T05:37:33;13.80;80.20
19039;DHT22;9652;49.014;12.052;2022-11-04T05:40:02;13.80;80.30
19039;DHT22;9652;49.014;12.052;2022-11-04T05:42:30;13.70;80.40
19039;DHT22;9652;49.014;12.052;2022-11-04T05:44:57;13.80;80.50
19039;DHT22;9652;49.014;12.052;2022-11-04T05:47:24;13.80;80.60
19039;DHT22;9652;49.014;12.052;2022-11-04T05:49:51;13.80;80.50
19039;DHT22;9652;49.014;12.052;2022-11-04T05:52:18;13.80;80.50
19039;DHT22;9652;49.014;12.052;2022-11-04T05:54:45;13.80;80.50
19039;DHT22;9652;49.014;12.052;2022-11-04T05:57:14;13.80;80.50
19039;DHT22;9652;49.014;12.052;2022-11-04T05:59:41;13.80;80.60
19039;DHT22;9652;49.014;12.052;2022-11-04T06:02:08;13.80;80.60
19039;DHT22;9652;49.014;12.052;2022-11-04T06:04:35;13.80;80.70
19039;DHT22;9652;49.014;12.052;2022-11-04T06:07:02;13.80;80.70
19039;DHT22;9652;49.014;12.052;2022-11-04T06:09:29;13.90;80.70
19039;DHT22;9652;49.014;12.052;2022-11-04T06:12:08;13.90;80.70
19039;DHT22;9652;49.014;12.052;2022-11-04T06:14:41;13.90;80.60
19039;DHT22;9652;49.014;12.052;2022-11-04T06:17:16;13.90;80.60
19039;DHT22;9652;49.014;12.052;2022-11-04T06:19:45;13.90;80.70
19039;DHT22;9652;49.014;12.052;2022-11-04T06:22:13;13.90;80.50
19039;DHT22;9652;49.014;12.052;2022-11-04T06:24:42;13.90;80.50
19039;DHT22;9652;49.014;12.052;2022-11-04T06:27:10;13.90;80.40
19039;DHT22;9652;49.014;12.052;2022-11-04T06:29:37;13.90;80.40
19039;DHT22;9652;49.014;12.052;2022-11-04T06:32:07;13.90;80.40
19039;DHT22;9652;49.014;12.052;2022-11-04T06:34:36;13.90;80.40
19039;DHT22;9652;49.014;12.052;2022-11-04T06:37:04;14.00;80.30
19039;DHT22;9652;49.014;12.052;2022-11-04T06:39:31;13.90;80.00
19039;DHT22;9652;49.014;12.052;2022-11-04T06:41:58;13.90;80.00
19039;DHT22;9652;49.014;12.052;2022-11-04T06:44:25;14.00;80.00
19039;DHT22;9652;49.014;12.052;2022-11-04T06:46:52;13.90;79.90
19039;DHT22;9652;49.014;12.052;2022-11-04T06:49:21;13.90;79.90
19039;DHT22;9652;49.014;12.052;2022-11-04T06:51:48;13.90;79.90
19039;DHT22;9652;49.014;12.052;2022-11-04T06:54:17;13.90;79.90
19039;DHT22;9652;49.014;12.052;2022-11-04T06:56:45;13.90;80.00
19039;DHT22;9652;49.014;12.052;2022-11-04T06:59:15;13.90;79.90
19039;DHT22;9652;49.014;12.052;2022-11-04T07:01:45;13.90;79.90
19039;DHT22;9652;49.014;12.052;2022-11-04T07:04:13;13.90;79.90
19039;DHT22;9652;49.014;12.052;2022-11-04T07:06:43;13.90;79.80
19039;DHT22;9652;49.014;12.052;2022-11-04T07:09:12;13.90;79.90
19039;DHT22;9652;49.014;12.052;2022-11-04T07:11:42;13.90;79.80
19039;DHT22;9652;49.014;12.052;2022-11-04T07:14:10;13.90;79.90
19039;DHT22;9652;49.014;12.052;2022-11-04T07:16:38;13.80;79.80
19039;DHT22;9652;49.014;12.052;2022-11-04T07:19:05;13.90;79.90
19039;DHT22;9652;49.014;12.052;2022-11-04T07:21:33;13.90;80.00
19039;DHT22;9652;49.014;12.052;2022-11-04T07:24:01;13.90;80.00
19039;DHT22;9652;49.014;12.052;2022-11-04T07:26:29;13.90;80.00
19039;DHT22;9652;49.014;12.052;2022-11-04T07:28:56;13.90;79.80
19039;DHT22;9652;49.014;12.052;2022-11-04T07:31:25;13.90;79.70
19039;DHT22;9652;49.014;12.052;2022-11-04T07:33:53;13.90;79.70
19039;DHT22;9652;49.014;12.052;2022-11-04T07:36:20;13.90;79.40
19039;DHT22;9652;49.014;12.052;2022-11-04T07:38:47;13.90;79.40
19039;DHT22;9652;49.014;12.052;2022-11-04T07:41:16;13.90;79.50
19039;DHT22;9652;49.014;12.052;2022-11-04T07:43:47;13.90;79.70
19039;DHT22;9652;49.014;12.052;2022-11-04T07:46:16;13.90;79.80
19039;DHT22;9652;49.014;12.052;2022-11-04T07:48:44;14.00;79.80
19039;DHT22;9652;49.014;12.052;2022-11-04T07:51:14;13.90;79.50
19039;DHT22;9652;49.014;12.052;2022-11-04T07:53:43;13.90;79.20
19039;DHT22;9652;49.014;12.052;2022-11-04T07:56:12;13.90;79.10
19039;DHT22;9652;49.014;12.052;2022-11-04T07:58:41;13.90;78.90
19039;DHT22;9652;49.014;12.052;2022-11-04T08:01:11;13.90;78.80
19039;DHT22;9652;49.014;12.052;2022-11-04T08:03:41;13.90;78.80
19039;DHT22;9652;49.014;12.052;2022-11-04T08:06:10;13.90;78.80
19039;DHT22;9652;49.014;12.052;2022-11-04T08:08:40;13.90;78.70
19039;DHT22;9652;49.014;12.052;2022-11-04T08:11:10;13.90;78.50
19039;DHT22;9652;49.014;12.052;2022-11-04T08:13:41;13.80;78.30
19039;DHT22;9652;49.014;12.052;2022-11-04T08:16:11;13.80;78.20
19039;DHT22;9652;49.014;12.052;2022-11-04T08:18:41;13.80;78.00
19039;DHT22;9652;49.014;12.052;2022-11-04T08:21:10;13.90;78.10
19039;DHT22;9652;49.014;12.052;2022-11-04T08:23:39;13.80;78.10
19039;DHT22;9652;49.014;12.052;2022-11-04T08:26:08;13.80;78.00
19039;DHT22;9652;49.014;12.052;2022-11-04T08:28:38;13.80;77.90
19039;DHT22;9652;49.014;12.052;2022-11-04T08:31:09;13.80;77.80
19039;DHT22;9652;49.014;12.052;2022-11-04T08:33:40;13.80;77.70
19039;DHT22;9652;49.014;12.052;2022-11-04T08:36:13;13.80;77.70
19039;DHT22;9652;49.014;12.052;2022-11-04T08:38:42;13.80;77.70
19039;DHT22;9652;49.014;12.052;2022-11-04T08:41:12;13.80;77.70
19039;DHT22;9652;49.014;12.052;2022-11-04T08:43:41;13.70;77.70
19039;DHT22;9652;49.014;12.052;2022-11-04T08:46:11;13.80;78.00
19039;DHT22;9652;49.014;12.052;2022-11-04T08:48:40;13.80;77.90
19039;DHT22;9652;49.014;12.052;2022-11-04T08:51:12;13.80;77.90
19039;DHT22;9652;49.014;12.052;2022-11-04T08:53:42;13.80;77.90
19039;DHT22;9652;49.014;12.052;2022-11-04T08:56:11;13.80;78.20
19039;DHT22;9652;49.014;12.052;2022-11-04T08:58:39;13.80;78.20
19039;DHT22;9652;49.014;12.052;2022-11-04T09:01:07;13.90;78.20
19039;DHT22;9652;49.014;12.052;2022-11-04T09:03:37;14.00;78.10
19039;DHT22;9652;49.014;12.052;2022-11-04T09:06:07;14.00;77.80
19039;DHT22;9652;49.014;12.052;2022-11-04T09:08:36;14.00;77.80
19039;DHT22;9652;49.014;12.052;2022-11-04T09:11:05;14.10;77.80
19039;DHT22;9652;49.014;12.052;2022-11-04T09:13:34;14.20;77.90
19039;DHT22;9652;49.014;12.052;2022-11-04T09:16:01;14.20;78.20
19039;DHT22;9652;49.014;12.052;2022-11-04T09:18:29;14.30;78.30
19039;DHT22;9652;49.014;12.052;2022-11-04T09:20:59;14.40;78.50
19039;DHT22;9652;49.014;12.052;2022-11-04T09:23:27;14.50;78.10
19039;DHT22;9652;49.014;12.052;2022-11-04T09:25:54;14.70;77.80
19039;DHT22;9652;49.014;12.052;2022-11-04T09:28:23;14.60;77.40
19039;DHT22;9652;49.014;12.052;2022-11-04T09:30:50;14.70;77.50
19039;DHT22;9652;49.014;12.052;2022-11-04T09:33:17;14.80;76.90
19039;DHT22;9652;49.014;12.052;2022-11-04T09:35:53;14.80;76.80
19039;DHT22;9652;49.014;12.052;2022-11-04T09:38:23;14.90;76.70
19039;DHT22;9652;49.014;12.052;2022-11-04T09:40:51;15.10;77.40
19039;DHT22;9652;49.014;12.052;2022-11-04T09:43:29;15.10;77.10
19039;DHT22;9652;49.014;12.052;2022-11-04T09:46:07;15.20;75.70
19039;DHT22;9652;49.014;12.052;2022-11-04T09:48:41;15.30;75.90
19039;DHT22;9652;49.014;12.052;2022-11-04T09:51:12;15.30;75.10
19039;DHT22;9652;49.014;12.052;2022-11-04T09:53:47;15.40;74.90
19039;DHT22;9652;49.014;12.052;2022-11-04T09:56:20;15.40;74.40
19039;DHT22;9652;49.014;12.052;2022-11-04T09:58:49;15.50;74.50
19039;DHT22;9652;49.014;12.052;2022-11-04T10:01:25;15.50;74.40
19039;DHT22;9652;49.014;12.052;2022-11-04T10:04:07;15.50;73.80
19039;DHT22;9652;49.014;12.052;2022-11-04T10:06:59;15.60;73.40
19039;DHT22;9652;49.014;12.052;2022-11-04T10:09:46;15.60;72.70
19039;DHT22;9652;49.014;12.052;2022-11-04T10:12:40;15.60;72.90
19039;DHT22;9652;49.014;12.052;2022-11-04T10:15:36;15.60;73.20
19039;DHT22;9652;49.014;12.052;2022-11-04T10:18:34;15.60;72.90
19039;DHT22;9652;49.014;12.052;2022-11-04T10:21:20;15.60;72.80
19039;DHT22;9652;49.014;12.052;2022-11-04T10:24:06;15.60;72.60
19039;DHT22;9652;49.014;12.052;2022-11-04T10:26:46;15.60;72.10
19039;DHT22;9652;49.014;12.052;2022-11-04T10:29:22;15.60;72.10
19039;DHT22;9652;49.014;12.052;2022-11-04T10:31:55;15.60;71.70
19039;DHT22;9652;49.014;12.052;2022-11-04T10:34:30;15.60;71.70
19039;DHT22;9652;49.014;12.052;2022-11-04T10:37:03;15.50;71.50
19039;DHT22;9652;49.014;12.052;2022-11-04T10:39:33;15.50;71.60
19039;DHT22;9652;49.014;12.052;2022-11-04T10:42:09;15.50;71.70
19039;DHT22;9652;49.014;12.052;2022-11-04T10:44:38;15.50;71.80
19039;DHT22;9652;49.014;12.052;2022-11-04T10:47:14;15.50;73.00
19039;DHT22;9652;49.014;12.052;2022-11-04T10:49:56;15.50;71.70
19039;DHT22;9652;49.014;12.052;2022-11-04T10:52:32;15.50;71.80
19039;DHT22;9652;49.014;12.052;2022-11-04T10:55:08;15.60;72.10
19039;DHT22;9652;49.014;12.052;2022-11-04T10:57:43;15.70;72.30
19039;DHT22;9652;49.014;12.052;2022-11-04T11:00:32;15.70;71.70
19039;DHT22;9652;49.014;12.052;2022-11-04T11:03:00;15.80;70.70
19039;DHT22;9652;49.014;12.052;2022-11-04T11:05:28;15.90;71.70
19039;DHT22;9652;49.014;12.052;2022-11-04T11:07:57;15.90;71.70
19039;DHT22;9652;49.014;12.052;2022-11-04T11:10:26;16.00;71.60
19039;DHT22;9652;49.014;12.052;2022-11-04T11:13:01;16.00;71.30
19039;DHT22;9652;49.014;12.052;2022-11-04T11:15:33;16.00;70.90
19039;DHT22;9652;49.014;12.052;2022-11-04T11:18:12;16.10;70.90
19039;DHT22;9652;49.014;12.052;2022-11-04T11:20:44;16.10;70.20
19039;DHT22;9652;49.014;12.052;2022-11-04T11:23:34;16.10;70.40
19039;DHT22;9652;49.014;12.052;2022-11-04T11:26:06;16.20;69.40
19039;DHT22;9652;49.014;12.052;2022-11-04T11:28:38;16.20;70.30
19039;DHT22;9652;49.014;12.052;2022-11-04T11:31:08;16.20;70.10
19039;DHT22;9652;49.014;12.052;2022-11-04T11:33:53;16.20;69.40
19039;DHT22;9652;49.014;12.052;2022-11-04T11:36:24;16.20;68.50
19039;DHT22;9652;49.014;12.052;2022-11-04T11:39:00;16.20;69.20
19039;DHT22;9652;49.014;12.052;2022-11-04T11:41:33;16.20;68.50
19039;DHT22;9652;49.014;12.052;2022-11-04T11:44:23;16.10;68.90
19039;DHT22;9652;49.014;12.052;2022-11-04T11:46:59;16.10;68.70
19039;DHT22;9652;49.014;12.052;2022-11-04T11:49:30;16.10;69.20
19039;DHT22;9652;49.014;12.052;2022-11-04T11:52:26;16.10;68.80
19039;DHT22;9652;49.014;12.052;2022-11-04T11:55:03;16.10;67.30
19039;DHT22;9652;49.014;12.052;2022-11-04T11:57:43;16.10;68.20
19039;DHT22;9652;49.014;12.052;2022-11-04T12:00:19;16.00;68.20
19039;DHT22;9652;49.014;12.052;2022-11-04T12:02:57;16.00;68.50
19039;DHT22;9652;49.014;12.052;2022-11-04T12:05:35;16.00;68.10
19039;DHT22;9652;49.014;12.052;2022-11-04T12:08:19;15.90;68.20
19039;DHT22;9652;49.014;12.052;2022-11-04T12:11:04;15.90;67.80
19039;DHT22;9652;49.014;12.052;2022-11-04T12:13:39;15.90;68.00
19039;DHT22;9652;49.014;12.052;2022-11-04T12:16:25;15.90;68.10
19039;DHT22;9652;49.014;12.052;2022-11-04T12:19:35;15.90;67.50
19039;DHT22;9652;49.014;12.052;2022-11-04T12:22:19;15.80;67.50
19039;DHT22;9652;49.014;12.052;2022-11-04T12:25:02;15.80;68.00
19039;DHT22;9652;49.014;12.052;2022-11-04T12:27:42;15.80;67.90
19039;DHT22;9652;49.014;12.052;2022-11-04T12:30:18;15.70;67.80
19039;DHT22;9652;49.014;12.052;2022-11-04T12:33:12;15.70;67.80
19039;DHT22;9652;49.014;12.052;2022-11-04T12:36:06;15.70;67.20
19039;DHT22;9652;49.014;12.052;2022-11-04T12:38:54;15.60;67.00
19039;DHT22;9652;49.014;12.052;2022-11-04T12:41:39;15.60;67.70
19039;DHT22;9652;49.014;12.052;2022-11-04T12:44:20;15.50;67.50
19039;DHT22;9652;49.014;12.052;2022-11-04T12:47:02;15.40;67.60
19039;DHT22;9652;49.014;12.052;2022-11-04T12:50:05;15.40;68.50
19039;DHT22;9652;49.014;12.052;2022-11-04T12:52:56;15.30;67.20
19039;DHT22;9652;49.014;12.052;2022-11-04T12:55:53;15.30;67.50
19039;DHT22;9652;49.014;12.052;2022-11-04T12:58:47;15.20;67.60
19039;DHT22;9652;49.014;12.052;2022-11-04T13:01:35;15.10;67.50
19039;DHT22;9652;49.014;12.052;2022-11-04T13:04:11;15.10;67.70
19039;DHT22;9652;49.014;12.052;2022-11-04T13:06:45;15.00;68.00
19039;DHT22;9652;49.014;12.052;2022-11-04T13:09:22;15.00;68.30
19039;DHT22;9652;49.014;12.052;2022-11-04T13:12:00;15.00;68.40
19039;DHT22;9652;49.014;12.052;2022-11-04T13:14:38;15.00;68.60
19039;DHT22;9652;49.014;12.052;2022-11-04T13:17:13;14.90;68.60
19039;DHT22;9652;49.014;12.052;2022-11-04T13:19:46;15.00;68.80
19039;DHT22;9652;49.014;12.052;2022-11-04T13:22:22;14.90;68.80
19039;DHT22;9652;49.014;12.052;2022-11-04T13:24:56;14.90;68.70
19039;DHT22;9652;49.014;12.052;2022-11-04T13:27:32;14.90;68.80
19039;DHT22;9652;49.014;12.052;2022-11-04T13:30:16;14.90;68.90
19039;DHT22;9652;49.014;12.052;2022-11-04T13:32:52;14.90;69.10
19039;DHT22;9652;49.014;12.052;2022-11-04T13:35:29;14.80;69.30
19039;DHT22;9652;49.014;12.052;2022-11-04T13:38:09;14.80;69.60
19039;DHT22;9652;49.014;12.052;2022-11-04T13:40:49;14.80;69.50
19039;DHT22;9652;49.014;12.052;2022-11-04T13:43:26;14.80;69.60
19039;DHT22;9652;49.014;12.052;2022-11-04T13:46:16;14.80;69.80
19039;DHT22;9652;49.014;12.052;2022-11-04T13:48:57;14.80;70.20
19039;DHT22;9652;49.014;12.052;2022-11-04T13:51:37;14.80;70.30
19039;DHT22;9652;49.014;12.052;2022-11-04T13:54:22;14.70;70.40
19039;DHT22;9652;49.014;12.052;2022-11-04T13:57:03;14.70;70.60
19039;DHT22;9652;49.014;12.052;2022-11-04T13:59:33;14.70;70.80
19039;DHT22;9652;49.014;12.052;2022-11-04T14:08:28;14.70;70.60
19039;DHT22;9652;49.014;12.052;2022-11-04T14:11:11;14.70;70.80
19039;DHT22;9652;49.014;12.052;2022-11-04T14:14:15;14.70;71.00
19039;DHT22;9652;49.014;12.052;2022-11-04T14:16:44;14.70;70.80
19039;DHT22;9652;49.014;12.052;2022-11-04T14:22:31;14.70;70.70
19039;DHT22;9652;49.014;12.052;2022-11-04T14:25:14;14.60;70.50
19039;DHT22;9652;49.014;12.052;2022-11-04T14:27:49;14.60;71.50
19039;DHT22;9652;49.014;12.052;2022-11-04T14:30:36;14.60;70.60
19039;DHT22;9652;49.014;12.052;2022-11-04T14:33:25;14.60;70.30
19039;DHT22;9652;49.014;12.052;2022-11-04T14:36:21;14.60;70.60
19039;DHT22;9652;49.014;12.052;2022-11-04T14:38:54;14.50;70.70
19039;DHT22;9652;49.014;12.052;2022-11-04T14:41:32;14.50;70.70
19039;DHT22;9652;49.014;12.052;2022-11-04T14:44:23;14.50;70.50
19039;DHT22;9652;49.014;12.052;2022-11-04T14:46:58;14.50;70.60
19039;DHT22;9652;49.014;12.052;2022-11-04T14:49:36;14.50;70.60
19039;DHT22;9652;49.014;12.052;2022-11-04T14:52:24;14.40;70.40
19039;DHT22;9652;49.014;12.052;2022-11-04T14:54:56;14.40;70.50
19039;DHT22;9652;49.014;12.052;2022-11-04T14:57:35;14.40;70.70
19039;DHT22;9652;49.014;12.052;2022-11-04T15:00:31;14.40;70.70
19039;DHT22;9652;49.014;12.052;2022-11-04T15:03:10;14.40;70.30
19039;DHT22;9652;49.014;12.052;2022-11-04T15:05:46;14.40;70.50
19039;DHT22;9652;49.014;12.052;2022-11-04T15:08:29;14.40;70.50
19039;DHT22;9652;49.014;12.052;2022-11-04T15:11:06;14.40;70.50
19039;DHT22;9652;49.014;12.052;2022-11-04T15:13:43;14.40;70.60
19039;DHT22;9652;49.014;12.052;2022-11-04T15:16:16;14.40;70.70
19039;DHT22;9652;49.014;12.052;2022-11-04T15:18:46;14.40;71.60
19039;DHT22;9652;49.014;12.052;2022-11-04T15:21:14;14.40;70.70
19039;DHT22;9652;49.014;12.052;2022-11-04T15:23:44;14.40;70.70
19039;DHT22;9652;49.014;12.052;2022-11-04T15:26:20;14.30;70.70
19039;DHT22;9652;49.014;12.052;2022-11-04T15:28:49;14.30;70.80
19039;DHT22;9652;49.014;12.052;2022-11-04T15:31:21;14.30;70.90
19039;DHT22;9652;49.014;12.052;2022-11-04T15:33:52;14.20;70.90
19039;DHT22;9652;49.014;12.052;2022-11-04T15:36:23;14.30;70.90
19039;DHT22;9652;49.014;12.052;2022-11-04T15:38:56;14.30;70.90
19039;DHT22;9652;49.014;12.052;2022-11-04T15:41:26;14.30;70.90
19039;DHT22;9652;49.014;12.052;2022-11-04T15:44:16;14.30;70.90
19039;DHT22;9652;49.014;12.052;2022-11-04T15:46:48;14.30;70.90
19039;DHT22;9652;49.014;12.052;2022-11-04T15:49:21;14.20;70.80
19039;DHT22;9652;49.014;12.052;2022-11-04T15:51:52;14.20;70.90
19039;DHT22;9652;49.014;12.052;2022-11-04T15:54:26;14.20;71.00
19039;DHT22;9652;49.014;12.052;2022-11-04T15:56:57;14.20;71.10
19039;DHT22;9652;49.014;12.052;2022-11-04T15:59:28;14.30;71.20
19039;DHT22;9652;49.014;12.052;2022-11-04T16:02:00;14.20;70.90
19039;DHT22;9652;49.014;12.052;2022-11-04T16:04:29;14.20;70.90
19039;DHT22;9652;49.014;12.052;2022-11-04T16:07:06;14.20;71.00
19039;DHT22;9652;49.014;12.052;2022-11-04T16:09:49;14.20;71.00
19039;DHT22;9652;49.014;12.052;2022-11-04T16:12:26;14.20;71.20
19039;DHT22;9652;49.014;12.052;2022-11-04T16:14:56;14.20;71.10
19039;DHT22;9652;49.014;12.052;2022-11-04T16:17:27;14.20;71.10
19039;DHT22;9652;49.014;12.052;2022-11-04T16:19:58;14.20;71.10
19039;DHT22;9652;49.014;12.052;2022-11-04T16:22:29;14.20;71.00
19039;DHT22;9652;49.014;12.052;2022-11-04T16:25:00;14.20;71.10
19039;DHT22;9652;49.014;12.052;2022-11-04T16:27:33;14.20;71.20
19039;DHT22;9652;49.014;12.052;2022-11-04T16:30:15;14.10;71.30